Misión y Visión

La misión es proporcionar información fiable a la navegación aérea, contribuyendo a la seguridad, regularidad y eficiencia de la Navegación Aérea Internacional

La visión es contribuir sustancialmente al desarrollo de conocimientos y a la utilización de la meteorología aeronáutica a nivel nacional e internacional, mediante la innovación y la coparticipación con sectores sociales y productivos de la sociedad.

 
  Inicio
  Metar
  Taf
  Wintemp
  SIGMET
  Avisos
  Pronósticos
  Carpeta Meteorologica
  Imágenes Satelitales
  Climatología Aeronáutica
   
  ¿Quienes Somos?
  Contacto
  Eventos



DIRECCIONES PARA INFORMES NACIONALES E INTERNACIONALES
(Metar /Speci - TAF)



http://adds.aviationweather.gov/tafs/index.php

http://www.ogimet.com/metars.phtml



PRONÓSTICOS DE AERÓDROMO

Cuando sea necesario, el encabezamiento abreviado puede incluir un cuarto grupo consistente en tres letras para identificar los boletines demorados (RRA), corregidos(CCA) o enmendados (AAA). Los boletines adicionales demorados, corregidos o enmendados deben identificarse con las letras RRB, RRC, etc.; CCB, CCC,etc.;AAB, AAC,etc.



ESTACIONES DESCRIPCION
MPTO (M) 281900Z 20008KT 7000 TSRA SCT005 SCT015CB BKN070 30/25 Q1011 TEMPO 5000 TSRA RMK TS W-N-E-SE ST ALQDS=  
MPBO (M) 290000Z 00000KT 9999 SCT016 SCT100 Q1013=  
MPCH (M) 290000Z 00000KT 9999 SCT020 SCT060 ///// Q1014=  
MPSA (M)  
MPCE (M)  
MPPN (M) 281900Z 00000KT(E) 9999 SCT025TCU SCT100 RMK TCU NE SW-W PCPN DSNT SW=  
MPSM (M)  
MPJE (M)  
MPPA (M) 290000Z 30007KT 9999 SCT018TCU SCT090 27/// Q1011 RMK TCU SE=  
MPMG (M) 290000Z 31005KT 9999 SCT018 SCT090 27/25 Q1010 27/25 Q1010 NOSIG=  
MPDA (M) 290000Z 00000KT 7000 RA SCT012CB SCT018 26/25 Q1010 RETS RWY WATER PATCHES RMK CB N/SE=  
MPVR (M) 281900Z 31012KT(E) 9999 SCT020TCU SCT100 RMK TCU SE/SW=  
MPWN (M)  
MPOA (M) 281900Z 31012KT(E) 9999 SCT020TCU SCT100 Q1011=  
MPMF (M)  
MPEJ (M) 281900Z NIL=  


CLIMATICAS

MPTO

26-06-2017

 

PCPN (mm)

T° MAX

T° MIN

VIENTO MAX (KT)

HORA

VIENTO PREDOM (KT)0.0

           0.0

30.9

24.1

13010KT

1900Z

 VRB 03KT

 

CLIMATICAS

MPMG

28-06-2017

PCPN (mm)

T° MAX T° MIN VIENTO MAX (KT) HORA VIENTO PREDOM (KT)
0.0 30.8 24.9

17007KT

1900Z NW

 

 
 





























  Noticias AAC
  Directorio
  Contáctenos
  Historia
  Quejas y Sugerencias
  Etica y Transparencia

  Gestión SSP/SMS
  Seguridad Aérea
  Navegación Aérea
  Transporte Aéreo

  Tramites
  Áeronaves de Alquiler

  Meteorología
  I.S.F.P.A
  Notam
  Peligro Aviario
  AVSEC
  UPIA
  Permisos
 




DECLARACIÓN DE PRIVACIDAD